Harrisburg, Oregon
Current Conditions -  °F | °C
As of 1:54 AM on Friday 28 Nov 2014 (Local Time) from KEUG Reporting Station
Overcast Overcast  
Wind Chill: 52°   Ceiling: 3900
Heat Index: 52°   Visibility: 10mi
Dew Point: 49°   Wind: 9mph
Humidity: 89%   Direction: 220°SW
Pressure: 29.81"   Gusts: NA
Location:  44.27°N, 123.17°W
Report Text: KEUG 280954Z AUTO 22008KT 10SM OVC039 11/09 A2981 RMK AO2 SLP095 T01110094
Loading
Personal Weather Stations






























Interactive Weather Map New forecast layout! Learn more

10-Day Weather Forecast

Advertisements
Track Severe Weather on mobile